Time;durP1;ratioP1;P1;durP2;ratioP2;P2;SDS_P1;SDS_P2;PMS_P1;PMS_P2;Temp;Humidity;BMP_temperature;BMP_pressure;BME280_temperature;BME280_humidity;BME280_pressure;Samples;Min_cycle;Max_cycle;Signal;HPM_P1;HPM_P2
2021/07/29 00:01:30;;;;;;;4.47;3.45;;;;;;;13.77;83.42;95563.41;5078126;28;20214;-78
2021/07/29 00:03:56;;;;;;;9.18;3.72;;;;;;;13.80;82.21;95550.06;5078699;28;20175;-78
2021/07/29 00:06:21;;;;;;;3.83;3.53;;;;;;;13.93;81.79;95549.50;5113493;28;20182;-76
2021/07/29 00:08:46;;;;;;;5.57;3.83;;;;;;;13.88;82.23;95554.44;5094719;28;20168;-76
2021/07/29 00:11:18;;;;;;;5.23;3.80;;;;;;;13.71;83.14;95543.22;5076502;28;20172;-76
2021/07/29 00:13:43;;;;;;;3.73;2.87;;;;;;;13.84;81.93;95545.28;5076926;28;20171;-75
2021/07/29 00:16:08;;;;;;;5.40;3.60;;;;;;;13.84;82.30;95543.50;5076593;28;20192;-76
2021/07/29 00:19:16;;;;;;;4.22;3.58;;;;;;;13.89;81.24;95538.59;5093797;28;20570;-76
2021/07/29 00:21:22;;;;;;;4.10;3.20;;;;;;;13.81;81.59;95541.25;5085750;28;20618;-76
2021/07/29 00:23:49;;;;;;;5.73;3.90;;;;;;;13.75;81.66;95541.09;5093381;28;20180;-75
2021/07/29 00:26:14;;;;;;;5.27;3.10;;;;;;;13.84;81.24;95535.66;5112196;28;20580;-75
2021/07/29 00:28:40;;;;;;;4.93;3.60;;;;;;;13.85;81.13;95539.09;5059905;28;20267;-76
2021/07/29 00:31:05;;;;;;;4.63;3.50;;;;;;;13.88;80.63;95530.94;5113113;28;20722;-76
2021/07/29 00:33:30;;;;;;;3.67;3.30;;;;;;;13.80;81.02;95531.78;5111435;28;20167;-75
2021/07/29 00:35:55;;;;;;;5.50;3.43;;;;;;;13.72;81.08;95523.97;5076615;28;20203;-76
2021/07/29 00:38:21;;;;;;;5.60;3.40;;;;;;;13.76;80.87;95521.81;5093402;28;20203;-75
2021/07/29 00:40:47;;;;;;;4.27;3.30;;;;;;;13.71;81.33;95530.19;5111501;28;20203;-76
2021/07/29 00:43:15;;;;;;;4.87;3.20;;;;;;;13.68;80.68;95527.06;5097904;28;20211;-76
2021/07/29 00:45:40;;;;;;;4.73;3.60;;;;;;;13.73;80.84;95527.41;5096911;28;20206;-76
2021/07/29 00:48:05;;;;;;;3.70;3.40;;;;;;;13.67;80.92;95526.25;5113216;28;20171;-76
2021/07/29 00:50:31;;;;;;;4.23;3.50;;;;;;;13.69;80.73;95526.09;5131909;28;20560;-76
2021/07/29 00:52:56;;;;;;;5.60;3.30;;;;;;;13.66;80.64;95523.81;5113413;28;20194;-76
2021/07/29 00:55:22;;;;;;;3.27;2.90;;;;;;;13.63;80.79;95519.75;5113538;28;20285;-75
2021/07/29 00:57:47;;;;;;;4.17;3.27;;;;;;;13.65;80.57;95519.59;5108970;28;20207;-75
2021/07/29 01:00:13;;;;;;;3.53;3.23;;;;;;;13.58;81.17;95519.44;5079688;28;20253;-76
2021/07/29 01:02:38;;;;;;;4.53;3.43;;;;;;;13.47;81.48;95523.22;5081055;28;20280;-76
2021/07/29 01:05:06;;;;;;;5.83;3.40;;;;;;;13.47;81.22;95520.59;5096629;28;20195;-76
2021/07/29 01:07:31;;;;;;;4.43;3.53;;;;;;;13.40;81.52;95517.03;5079796;28;20202;-75
2021/07/29 01:09:56;;;;;;;3.10;2.80;;;;;;;13.49;80.82;95517.81;5096791;28;20675;-76
2021/07/29 01:12:22;;;;;;;4.23;3.67;;;;;;;13.47;80.55;95511.97;5114713;28;20190;-76
2021/07/29 01:14:47;;;;;;;3.50;3.20;;;;;;;13.55;79.85;95510.16;5097108;28;20196;-75
2021/07/29 01:17:12;;;;;;;5.00;3.20;;;;;;;13.47;79.75;95507.56;5096591;28;20171;-75
2021/07/29 01:19:38;;;;;;;5.00;3.30;;;;;;;13.54;79.94;95510.31;5097111;28;20612;-76
2021/07/29 01:22:03;;;;;;;4.67;3.13;;;;;;;13.43;80.14;95510.66;5096412;28;20290;-76
2021/07/29 01:24:28;;;;;;;6.47;3.03;;;;;;;13.38;80.24;95510.34;5096870;28;20223;-77
2021/07/29 01:26:54;;;;;;;6.83;3.33;;;;;;;13.44;80.36;95512.31;5080337;28;20216;-77
2021/07/29 01:29:19;;;;;;;5.83;3.83;;;;;;;13.42;80.09;95514.25;5079875;28;20581;-77
2021/07/29 01:31:45;;;;;;;3.77;3.00;;;;;;;13.39;79.79;95509.38;5096530;28;20536;-76
2021/07/29 01:34:10;;;;;;;4.47;3.30;;;;;;;13.35;80.28;95508.09;5114678;28;20220;-76
2021/07/29 01:36:36;;;;;;;4.57;3.23;;;;;;;13.41;80.11;95510.81;5115024;28;20167;-76
2021/07/29 01:39:01;;;;;;;7.37;4.30;;;;;;;13.32;80.06;95507.41;5096838;28;20172;-77
2021/07/29 01:41:27;;;;;;;5.47;3.33;;;;;;;13.39;79.56;95504.16;5079594;28;20596;-77
2021/07/29 01:43:52;;;;;;;3.50;3.20;;;;;;;13.41;79.23;95507.41;5096444;28;20639;-76
2021/07/29 01:46:17;;;;;;;4.47;2.90;;;;;;;13.33;79.21;95500.41;5096578;28;20172;-77
2021/07/29 01:48:43;;;;;;;4.37;3.70;;;;;;;13.43;79.10;95495.00;5096381;28;20551;-77
2021/07/29 01:51:08;;;;;;;3.73;3.23;;;;;;;13.39;78.90;95498.94;5096596;28;20226;-76
2021/07/29 01:53:33;;;;;;;3.90;3.30;;;;;;;13.42;79.15;95498.59;5114566;28;20168;-77
2021/07/29 01:55:59;;;;;;;3.10;2.80;;;;;;;13.41;79.13;95496.97;5114407;28;20204;-77
2021/07/29 01:58:24;;;;;;;3.57;3.00;;;;;;;13.37;79.21;95501.72;5079568;28;20182;-76
2021/07/29 02:00:50;;;;;;;5.90;3.50;;;;;;;13.43;79.36;95503.66;5079164;28;20615;-77
2021/07/29 02:03:16;;;;;;;3.50;3.03;;;;;;;13.38;79.22;95505.13;5096296;28;20172;-76
2021/07/29 02:05:41;;;;;;;5.53;3.20;;;;;;;13.48;78.82;95503.16;5096114;28;20241;-75
2021/07/29 02:08:07;;;;;;;4.57;2.80;;;;;;;13.43;78.76;95503.66;5096211;28;20301;-77
2021/07/29 02:10:33;;;;;;;5.70;3.40;;;;;;;13.49;78.63;95505.59;5095235;28;20171;-77
2021/07/29 02:12:58;;;;;;;3.50;3.20;;;;;;;13.50;78.87;95504.59;5096213;28;20615;-76
2021/07/29 02:15:24;;;;;;;4.97;3.33;;;;;;;13.48;78.91;95503.97;5079502;28;20191;-76
2021/07/29 02:17:49;;;;;;;3.60;3.10;;;;;;;13.37;79.53;95501.72;5096369;28;20180;-77
2021/07/29 02:20:15;;;;;;;3.73;3.17;;;;;;;13.46;79.28;95505.13;5078305;28;20226;-76
2021/07/29 02:22:41;;;;;;;3.47;2.97;;;;;;;13.47;79.01;95498.91;5113905;28;20172;-77
2021/07/29 02:25:07;;;;;;;3.70;3.40;;;;;;;13.41;78.93;95496.97;5078435;28;20286;-76
2021/07/29 02:27:33;;;;;;;3.70;3.27;;;;;;;13.36;79.15;95501.88;5095569;28;20172;-76
2021/07/29 02:29:58;;;;;;;4.97;3.20;;;;;;;13.36;79.07;95494.88;5095391;28;20168;-76
2021/07/29 02:32:24;;;;;;;3.77;3.00;;;;;;;13.36;78.87;95505.31;5113512;28;20182;-76
2021/07/29 02:34:52;;;;;;;4.67;3.00;;;;;;;13.48;78.42;95498.75;5095628;28;20323;-75
2021/07/29 02:37:17;;;;;;;3.20;2.60;;;;;;;13.38;78.64;95499.91;5113552;28;20175;-77
2021/07/29 02:39:42;;;;;;;4.07;2.90;;;;;;;13.37;78.77;95503.50;5078126;28;20176;-76
2021/07/29 02:42:08;;;;;;;4.67;3.00;;;;;;;13.28;79.10;95502.69;5094941;28;20200;-76
2021/07/29 02:44:34;;;;;;;4.57;3.33;;;;;;;13.21;79.35;95505.16;5095013;28;20199;-76
2021/07/29 02:46:59;;;;;;;3.30;3.00;;;;;;;13.30;79.16;95501.53;5095371;28;20172;-77
2021/07/29 02:49:24;;;;;;;4.00;3.23;;;;;;;13.25;79.39;95505.63;5095117;28;20657;-76
2021/07/29 02:51:50;;;;;;;3.53;2.87;;;;;;;13.23;79.27;95497.16;5112924;28;20217;-76
2021/07/29 02:54:15;;;;;;;3.37;3.07;;;;;;;13.22;79.25;95509.38;5077847;28;20246;-77
2021/07/29 02:56:40;;;;;;;3.90;3.37;;;;;;;13.20;79.46;95506.13;5113134;28;20605;-76
2021/07/29 02:59:06;;;;;;;4.63;2.80;;;;;;;13.23;79.45;95510.19;5078250;28;20172;-75
2021/07/29 03:01:34;;;;;;;5.40;3.20;;;;;;;13.20;79.01;95511.34;5094558;28;20566;-76
2021/07/29 03:03:59;;;;;;;3.40;3.10;;;;;;;13.17;79.47;95516.88;5094603;28;20175;-76
2021/07/29 03:06:24;;;;;;;4.67;3.70;;;;;;;13.19;79.43;95514.94;5113103;28;20176;-76
2021/07/29 03:08:50;;;;;;;5.60;3.17;;;;;;;13.11;79.50;95509.69;5094817;28;20179;-76
2021/07/29 03:11:16;;;;;;;5.77;3.50;;;;;;;13.07;79.68;95505.75;5112845;28;20245;-77
2021/07/29 03:13:41;;;;;;;4.27;2.83;;;;;;;13.13;79.39;95514.75;5094715;28;20264;-76
2021/07/29 03:16:06;;;;;;;3.33;3.03;;;;;;;13.02;79.99;95514.09;5112895;28;20196;-77
2021/07/29 03:18:32;;;;;;;4.07;2.90;;;;;;;13.07;80.01;95518.81;5113101;28;20168;-76
2021/07/29 03:20:57;;;;;;;3.40;3.10;;;;;;;13.04;80.13;95517.34;5077329;28;20635;-76
2021/07/29 03:23:22;;;;;;;6.83;3.57;;;;;;;13.03;79.82;95504.47;5112550;28;20180;-76
2021/07/29 03:25:49;;;;;;;3.93;3.60;;;;;;;12.99;80.28;95508.41;5094330;28;20191;-76
2021/07/29 03:28:14;;;;;;;4.13;3.00;;;;;;;13.04;80.14;95506.09;5094703;28;20269;-76
2021/07/29 03:30:40;;;;;;;4.37;2.93;;;;;;;12.94;80.87;95506.28;5077714;28;20667;-76
2021/07/29 03:33:06;;;;;;;4.47;3.00;;;;;;;12.91;80.85;95508.41;5094468;28;20176;-77
2021/07/29 03:35:32;;;;;;;4.83;3.03;;;;;;;12.94;80.62;95505.47;5094772;28;20200;-77
2021/07/29 03:37:57;;;;;;;6.47;3.17;;;;;;;12.92;80.74;95502.22;5094562;28;20516;-77
2021/07/29 03:40:22;;;;;;;5.43;3.57;;;;;;;12.93;80.82;95509.03;5077684;28;20196;-76
2021/07/29 03:42:48;;;;;;;5.57;3.40;;;;;;;12.86;81.39;95508.88;5094363;28;20635;-77
2021/07/29 03:45:13;;;;;;;3.87;3.47;;;;;;;12.85;81.55;95519.47;5094154;28;20199;-77
2021/07/29 03:47:38;;;;;;;4.33;3.20;;;;;;;12.83;81.58;95519.63;5077859;28;20221;-77
2021/07/29 03:50:04;;;;;;;4.97;3.10;;;;;;;12.83;81.85;95518.81;5094239;28;20175;-77
2021/07/29 03:52:29;;;;;;;3.53;3.23;;;;;;;12.92;81.40;95521.25;5077244;28;20209;-77
2021/07/29 03:54:55;;;;;;;4.53;3.27;;;;;;;12.93;81.52;95525.50;5077233;28;20601;-77
2021/07/29 03:57:23;;;;;;;4.33;3.27;;;;;;;12.88;81.76;95522.56;5094209;28;20176;-77
2021/07/29 03:59:48;;;;;;;4.20;3.23;;;;;;;12.89;82.00;95523.34;5095022;28;20171;-77
2021/07/29 04:02:13;;;;;;;3.30;3.00;;;;;;;12.98;82.07;95522.38;5094211;28;20783;-77
2021/07/29 04:04:40;;;;;;;5.33;3.50;;;;;;;13.07;81.50;95529.22;5077844;28;20196;-76
2021/07/29 04:07:06;;;;;;;4.17;3.23;;;;;;;12.99;81.53;95526.66;5094670;28;20222;-77
2021/07/29 04:09:32;;;;;;;3.27;2.97;;;;;;;13.12;81.30;95532.16;5084599;27;20183;-77
2021/07/29 04:11:57;;;;;;;6.33;3.00;;;;;;;13.08;81.27;95525.66;5101789;28;20171;-77
2021/07/29 04:14:22;;;;;;;4.63;3.40;;;;;;;13.14;81.54;95526.78;5130189;28;20204;-79
2021/07/29 04:16:48;;;;;;;3.50;3.20;;;;;;;13.23;81.27;95524.03;5131557;28;20232;-80
2021/07/29 04:19:13;;;;;;;3.17;2.87;;;;;;;13.25;81.02;95524.72;5114166;28;20175;-79
2021/07/29 04:21:38;;;;;;;3.13;2.93;;;;;;;13.33;80.85;95524.69;5113673;28;20252;-79
2021/07/29 04:24:04;;;;;;;3.90;3.30;;;;;;;13.39;80.73;95536.25;5114286;28;20642;-77
2021/07/29 04:26:29;;;;;;;3.40;3.00;;;;;;;13.40;80.71;95524.84;5132771;28;20698;-78
2021/07/29 04:28:54;;;;;;;5.60;3.20;;;;;;;13.46;80.01;95524.19;5131394;28;20234;-78
2021/07/29 04:31:20;;;;;;;3.20;2.90;;;;;;;13.50;79.86;95525.47;5132515;28;20175;-77
2021/07/29 04:33:45;;;;;;;7.93;3.63;;;;;;;13.46;80.40;95536.41;5115833;27;20745;-78
2021/07/29 04:36:11;;;;;;;3.83;2.93;;;;;;;13.65;79.87;95530.84;5136438;27;20203;-78
2021/07/29 04:38:36;;;;;;;3.93;3.37;;;;;;;13.63;79.80;95535.41;5118339;27;20222;-79
2021/07/29 04:41:05;;;;;;;3.83;3.50;;;;;;;13.71;79.26;95538.00;5135959;27;20304;-77
2021/07/29 04:43:30;;;;;;;4.20;3.80;;;;;;;13.82;78.98;95537.63;5128526;27;20229;-76
2021/07/29 04:45:56;;;;;;;3.80;3.40;;;;;;;13.79;79.18;95542.41;5134757;27;20199;-77
2021/07/29 04:48:21;;;;;;;5.37;3.43;;;;;;;14.02;78.99;95534.63;5117660;27;20171;-77
2021/07/29 04:50:46;;;;;;;4.20;3.80;;;;;;;14.78;76.63;95543.59;5117669;27;20295;-77
2021/07/29 04:53:12;;;;;;;4.43;3.25;;;;;;;16.40;69.34;95536.81;5135647;27;20258;-77
2021/07/29 04:55:37;;;;;;;3.35;2.90;;;;;;;17.41;65.21;95545.53;5134629;27;20302;-76
2021/07/29 04:58:03;;;;;;;3.17;2.88;;;;;;;19.43;59.61;95546.00;5134907;27;20175;-76
2021/07/29 05:00:30;;;;;;;3.05;2.47;;;;;;;19.92;56.51;95544.78;5121172;27;20218;-77
2021/07/29 05:02:55;;;;;;;3.90;2.50;;;;;;;21.34;53.08;95552.53;5120920;27;20181;-77
2021/07/29 05:05:20;;;;;;;2.83;2.25;;;;;;;21.97;49.42;95552.41;5131700;27;20190;-77
2021/07/29 05:07:49;;;;;;;3.72;2.13;;;;;;;22.68;47.15;95545.72;5111551;27;20554;-78
2021/07/29 05:10:15;;;;;;;4.28;2.40;;;;;;;22.64;48.39;95544.56;5094494;27;20175;-77
2021/07/29 05:12:40;;;;;;;2.63;2.10;;;;;;;23.80;44.49;95553.13;5112883;27;20673;-77
2021/07/29 05:15:06;;;;;;;3.40;2.60;;;;;;;23.55;44.53;95540.06;5100271;27;20195;-76
2021/07/29 05:17:31;;;;;;;3.80;2.22;;;;;;;24.41;43.29;95536.75;5096953;28;20578;-77
2021/07/29 05:19:56;;;;;;;2.83;2.50;;;;;;;24.54;42.23;95540.97;5113914;27;20642;-77
2021/07/29 05:22:22;;;;;;;3.40;2.10;;;;;;;24.56;43.13;95541.56;5116805;27;20211;-77
2021/07/29 05:24:47;;;;;;;2.65;2.35;;;;;;;24.22;43.58;95548.50;5100103;27;20230;-77
2021/07/29 05:27:12;;;;;;;3.92;2.05;;;;;;;23.28;45.03;95547.59;5119826;27;20175;-77
2021/07/29 05:29:38;;;;;;;2.15;2.05;;;;;;;22.20;47.67;95557.09;5125067;27;20182;-78
2021/07/29 05:32:03;;;;;;;3.83;2.72;;;;;;;21.80;48.82;95547.88;5116729;27;20164;-77
2021/07/29 05:34:29;;;;;;;3.13;2.35;;;;;;;20.28;53.68;95545.09;5117075;27;20199;-78
2021/07/29 05:36:54;;;;;;;2.53;2.28;;;;;;;20.80;53.25;95550.41;5117006;27;20666;-77
2021/07/29 05:39:19;;;;;;;3.55;2.80;;;;;;;20.00;54.95;95542.75;5117089;27;20195;-77
2021/07/29 05:41:45;;;;;;;3.67;2.53;;;;;;;20.02;54.65;95551.25;5135413;27;20238;-78
2021/07/29 05:44:11;;;;;;;3.97;2.72;;;;;;;21.12;52.26;95545.97;5099630;27;20195;-77
2021/07/29 05:46:37;;;;;;;2.25;2.05;;;;;;;22.22;50.27;95551.56;5116853;27;20183;-77
2021/07/29 05:49:02;;;;;;;3.58;2.20;;;;;;;24.56;44.88;95547.69;5103486;27;20171;-76
2021/07/29 05:51:27;;;;;;;2.40;2.20;;;;;;;24.10;44.96;95543.19;5116175;27;20221;-77
2021/07/29 05:53:53;;;;;;;3.45;2.30;;;;;;;25.45;42.65;95549.06;5117076;27;20250;-78
2021/07/29 05:56:18;;;;;;;2.50;2.22;;;;;;;25.16;42.97;95556.25;5099495;27;20555;-79
2021/07/29 05:58:44;;;;;;;3.88;2.22;;;;;;;24.98;42.27;95560.69;5116454;27;20645;-79
2021/07/29 06:01:09;;;;;;;2.72;2.30;;;;;;;25.63;40.50;95557.59;5116959;27;20188;-77
2021/07/29 06:03:34;;;;;;;4.50;2.28;;;;;;;26.95;38.16;95552.53;5098897;27;20171;-76
2021/07/29 06:06:00;;;;;;;2.22;2.03;;;;;;;26.63;38.96;95561.19;5134527;27;20239;-77
2021/07/29 06:08:25;;;;;;;2.40;2.20;;;;;;;26.61;38.05;95563.31;5116758;27;20176;-78
2021/07/29 06:10:50;;;;;;;2.10;1.90;;;;;;;27.38;37.57;95557.75;5134930;27;20265;-77
2021/07/29 06:13:16;;;;;;;3.25;2.10;;;;;;;27.49;37.32;95556.00;5115780;27;20267;-76
2021/07/29 06:15:41;;;;;;;2.33;2.13;;;;;;;27.26;36.63;95559.00;5134871;27;20187;-77
2021/07/29 06:18:10;;;;;;;2.80;2.53;;;;;;;27.44;36.16;95557.81;5099255;27;20593;-77
2021/07/29 06:20:35;;;;;;;4.50;2.65;;;;;;;28.05;34.79;95561.00;5134745;27;20199;-76
2021/07/29 06:23:01;;;;;;;2.83;2.28;;;;;;;26.78;36.87;95569.38;5134305;27;20179;-77
2021/07/29 06:25:26;;;;;;;5.32;2.78;;;;;;;26.29;38.93;95570.31;5099676;27;20226;-77
2021/07/29 06:27:51;;;;;;;5.82;2.40;;;;;;;26.72;37.56;95574.91;5099024;27;20187;-78
2021/07/29 06:30:17;;;;;;;5.18;2.80;;;;;;;26.63;37.67;95576.38;5116382;27;20175;-78
2021/07/29 06:32:43;;;;;;;4.68;2.65;;;;;;;27.92;35.16;95579.06;5098864;27;20288;-78
2021/07/29 06:35:09;;;;;;;2.28;1.88;;;;;;;27.27;37.32;95576.59;5115939;27;20701;-77
2021/07/29 06:37:34;;;;;;;4.18;2.42;;;;;;;26.12;38.46;95580.97;5099361;27;20179;-78
2021/07/29 06:40:00;;;;;;;2.67;2.40;;;;;;;24.44;41.77;95581.38;5116679;27;20657;-78
2021/07/29 06:42:25;;;;;;;2.53;2.33;;;;;;;23.62;44.76;95581.34;5134821;27;20297;-76
2021/07/29 06:44:50;;;;;;;4.05;2.58;;;;;;;22.76;47.15;95579.84;5116277;27;20278;-77
2021/07/29 06:47:20;;;;;;;4.32;2.65;;;;;;;21.69;49.50;95579.28;5115850;27;20270;-77
2021/07/29 06:49:49;;;;;;;3.40;2.63;;;;;;;21.80;49.46;95584.88;5116770;27;20250;-77
2021/07/29 06:52:14;;;;;;;5.55;2.50;;;;;;;21.83;49.63;95580.00;5117133;27;20220;-77
2021/07/29 06:54:40;;;;;;;3.45;2.30;;;;;;;21.21;50.73;95586.94;5135220;27;20195;-78
2021/07/29 06:57:06;;;;;;;2.75;2.53;;;;;;;20.84;52.00;95583.25;5098583;27;20171;-76
2021/07/29 06:59:32;;;;;;;3.63;2.65;;;;;;;20.51;52.53;95586.84;5115869;27;20227;-77
2021/07/29 07:01:57;;;;;;;4.93;3.00;;;;;;;20.37;54.36;95582.59;5130690;27;20210;-77
2021/07/29 07:04:22;;;;;;;3.70;2.80;;;;;;;20.26;54.60;95593.78;5113548;27;20199;-77
2021/07/29 07:06:48;;;;;;;4.15;2.85;;;;;;;19.94;55.00;95587.53;5118741;27;20238;-77
2021/07/29 07:09:13;;;;;;;3.17;2.92;;;;;;;19.85;56.14;95600.13;5098951;27;20179;-80
2021/07/29 07:11:39;;;;;;;3.10;2.80;;;;;;;20.29;54.38;95598.63;5113427;27;20175;-77
2021/07/29 07:14:06;;;;;;;2.90;2.60;;;;;;;19.94;56.25;95588.34;5113001;27;20190;-77
2021/07/29 07:16:32;;;;;;;3.60;2.60;;;;;;;19.84;56.00;95595.06;5112868;27;20206;-75
2021/07/29 07:18:58;;;;;;;3.67;3.30;;;;;;;19.39;56.58;95594.81;5096075;27;20262;-76
2021/07/29 07:21:23;;;;;;;3.65;2.75;;;;;;;19.73;56.36;95596.50;5110841;27;20294;-76
2021/07/29 07:23:49;;;;;;;3.72;2.88;;;;;;;19.82;57.18;95597.91;5131163;27;20581;-76
2021/07/29 07:26:16;;;;;;;3.35;2.60;;;;;;;19.64;57.28;95598.50;5112918;27;20175;-76
2021/07/29 07:28:41;;;;;;;5.88;3.13;;;;;;;19.50;57.62;95600.28;5113359;27;20176;-76
2021/07/29 07:31:07;;;;;;;3.58;3.08;;;;;;;19.59;56.67;95605.41;5112716;27;20216;-77
2021/07/29 07:33:32;;;;;;;4.43;3.13;;;;;;;19.06;57.12;95592.13;5111769;27;20183;-76
2021/07/29 07:35:57;;;;;;;5.20;2.70;;;;;;;19.10;56.94;95599.44;5112805;27;20214;-75
2021/07/29 07:38:22;;;;;;;3.78;3.10;;;;;;;19.01;57.88;95607.72;5132047;27;20171;-75
2021/07/29 07:40:49;;;;;;;4.95;2.83;;;;;;;18.92;58.36;95612.34;5114397;27;20676;-75
2021/07/29 07:43:14;;;;;;;3.05;2.50;;;;;;;18.55;59.22;95611.75;5098220;27;20200;-78
2021/07/29 07:45:40;;;;;;;4.38;2.80;;;;;;;18.36;60.13;95609.81;5114975;27;20198;-75
2021/07/29 07:48:06;;;;;;;5.65;3.00;;;;;;;18.66;59.61;95605.97;5132415;27;20172;-75
2021/07/29 07:50:32;;;;;;;3.88;2.88;;;;;;;18.89;58.83;95604.81;5094198;28;20599;-76
2021/07/29 07:52:57;;;;;;;6.22;3.05;;;;;;;18.86;58.67;95608.66;5094093;28;20207;-76
2021/07/29 07:55:23;;;;;;;3.75;2.80;;;;;;;18.98;58.29;95611.53;5111990;28;20682;-77
2021/07/29 07:57:48;;;;;;;3.60;3.22;;;;;;;18.96;58.45;95610.91;5093994;28;20193;-76
2021/07/29 08:00:15;;;;;;;6.97;3.67;;;;;;;18.63;58.62;95602.88;5111768;28;20255;-76
2021/07/29 08:02:40;;;;;;;3.47;2.88;;;;;;;19.31;56.30;95605.53;5112034;28;20168;-76
2021/07/29 08:05:06;;;;;;;4.18;3.25;;;;;;;20.14;53.38;95598.06;5095813;28;20210;-77
2021/07/29 08:07:31;;;;;;;5.40;2.95;;;;;;;20.21;52.66;95598.84;5115031;28;20178;-78
2021/07/29 08:09:57;;;;;;;4.22;3.13;;;;;;;20.40;52.45;95599.81;5104190;27;20182;-76
2021/07/29 08:12:22;;;;;;;4.30;3.13;;;;;;;20.15;51.74;95597.06;5121292;27;20175;-78
2021/07/29 08:14:47;;;;;;;3.40;2.80;;;;;;;20.10;52.18;95589.75;5121110;27;20197;-78
2021/07/29 08:17:13;;;;;;;3.88;2.85;;;;;;;20.24;52.51;95591.38;5105184;27;20179;-78
2021/07/29 08:19:38;;;;;;;3.65;2.50;;;;;;;20.13;52.87;95599.88;5103905;27;20220;-78
2021/07/29 08:22:03;;;;;;;4.70;2.88;;;;;;;20.14;52.26;95592.78;5118954;27;20198;-78
2021/07/29 08:24:29;;;;;;;4.38;2.97;;;;;;;20.26;51.46;95589.31;5121001;27;20238;-78
2021/07/29 08:26:54;;;;;;;3.70;2.83;;;;;;;20.40;51.56;95595.34;5119981;27;20172;-78
2021/07/29 08:29:19;;;;;;;3.38;3.08;;;;;;;20.56;52.03;95592.28;5103436;27;20193;-77
2021/07/29 08:31:44;;;;;;;4.28;3.33;;;;;;;20.76;50.07;95588.75;5119981;27;20268;-78
2021/07/29 08:34:10;;;;;;;5.65;3.10;;;;;;;20.61;50.41;95587.22;5102856;27;20191;-78
2021/07/29 08:36:35;;;;;;;3.60;2.90;;;;;;;21.00;50.15;95584.59;5103071;27;20175;-77
2021/07/29 08:39:00;;;;;;;2.67;2.47;;;;;;;20.88;48.80;95589.75;5121123;27;20232;-78
2021/07/29 08:41:26;;;;;;;3.20;2.90;;;;;;;21.13;48.73;95588.00;5119711;27;20183;-76
2021/07/29 08:43:51;;;;;;;4.07;3.20;;;;;;;20.77;47.87;95590.41;5136823;27;20167;-76
2021/07/29 08:46:18;;;;;;;3.92;2.88;;;;;;;20.64;48.30;95592.06;5101385;27;20175;-77
2021/07/29 08:48:48;;;;;;;3.92;2.88;;;;;;;20.24;48.65;95601.91;5118192;27;20171;-76
2021/07/29 08:51:19;;;;;;;3.78;2.67;;;;;;;20.01;48.32;95604.97;5117929;27;20163;-77
2021/07/29 08:53:47;;;;;;;3.40;2.65;;;;;;;19.94;49.15;95608.63;5100761;27;20252;-76
2021/07/29 08:56:13;;;;;;;3.63;2.78;;;;;;;20.03;49.09;95602.94;5117975;27;20689;-76
2021/07/29 08:58:39;;;;;;;4.63;2.42;;;;;;;20.29;48.28;95610.00;5118299;27;20258;-78
2021/07/29 09:01:08;;;;;;;3.13;2.50;;;;;;;20.71;47.76;95618.44;5101125;27;20636;-78
2021/07/29 09:03:35;;;;;;;5.22;2.72;;;;;;;20.54;49.04;95614.63;5118391;27;20175;-78
2021/07/29 09:06:08;;;;;;;5.18;2.90;;;;;;;20.49;48.62;95622.34;5117959;27;20803;-77
2021/07/29 09:08:55;;;;;;;3.88;3.22;;;;;;;20.40;47.83;95616.47;5117615;27;20178;-77
2021/07/29 09:11:34;;;;;;;3.05;2.63;;;;;;;20.50;48.59;95611.63;5100417;27;20258;-76
2021/07/29 09:14:18;;;;;;;3.25;2.95;;;;;;;20.45;47.89;95616.69;5117384;27;20692;-76
2021/07/29 09:17:04;;;;;;;3.30;2.97;;;;;;;20.45;48.18;95608.78;5116251;27;20625;-76
2021/07/29 09:19:38;;;;;;;4.53;3.10;;;;;;;20.37;47.54;95616.88;5116244;27;20178;-77
2021/07/29 09:22:06;;;;;;;4.05;3.05;;;;;;;20.51;47.63;95612.44;5116826;27;20702;-77
2021/07/29 09:24:32;;;;;;;4.05;3.10;;;;;;;20.70;47.99;95614.19;5116905;27;20199;-77
2021/07/29 09:26:58;;;;;;;4.07;3.35;;;;;;;20.93;47.93;95611.03;5116633;27;20171;-76
2021/07/29 09:29:27;;;;;;;3.58;2.80;;;;;;;20.81;48.12;95610.06;5099892;27;20603;-77
2021/07/29 09:32:05;;;;;;;3.47;2.92;;;;;;;21.47;47.55;95612.41;5116730;27;20194;-77
2021/07/29 09:34:50;;;;;;;3.75;2.70;;;;;;;21.98;45.66;95612.19;5119800;27;20222;-77
2021/07/29 09:37:16;;;;;;;4.07;3.35;;;;;;;22.02;45.92;95607.28;5100030;27;20175;-77
2021/07/29 09:39:42;;;;;;;3.42;3.03;;;;;;;21.38;46.03;95600.44;5100732;27;20707;-77
2021/07/29 09:42:19;;;;;;;3.70;3.05;;;;;;;21.29;46.28;95609.63;5099785;27;20203;-77
2021/07/29 09:44:47;;;;;;;4.60;2.92;;;;;;;21.30;45.09;95606.81;5116427;27;20748;-77
2021/07/29 09:47:12;;;;;;;3.67;2.90;;;;;;;20.96;46.41;95605.34;5116736;27;20174;-77
2021/07/29 09:49:39;;;;;;;4.22;3.45;;;;;;;21.04;46.44;95602.47;5116697;27;20180;-77
2021/07/29 09:52:05;;;;;;;4.97;3.45;;;;;;;21.31;46.63;95602.34;5099241;27;20172;-77
2021/07/29 09:54:30;;;;;;;3.72;2.88;;;;;;;21.14;46.09;95591.44;5099330;27;20376;-76
2021/07/29 09:56:55;;;;;;;6.32;3.58;;;;;;;20.90;46.39;95592.97;5134498;27;20210;-76
2021/07/29 09:59:21;;;;;;;4.78;3.28;;;;;;;21.33;46.27;95595.00;5099571;27;20256;-75
2021/07/29 10:01:47;;;;;;;4.40;3.28;;;;;;;21.45;46.58;95591.44;5114881;27;20199;-76
2021/07/29 10:04:13;;;;;;;4.00;3.55;;;;;;;21.32;46.83;95588.91;5099014;27;20195;-76
2021/07/29 10:06:39;;;;;;;3.78;3.17;;;;;;;21.17;46.71;95588.34;5095708;28;20210;-76
2021/07/29 10:09:08;;;;;;;4.40;3.15;;;;;;;21.39;46.72;95583.59;5095671;28;20168;-76
2021/07/29 10:11:35;;;;;;;4.10;3.40;;;;;;;21.46;46.38;95584.34;5095316;28;20254;-76
2021/07/29 10:14:01;;;;;;;4.18;3.00;;;;;;;21.69;45.40;95583.75;5095546;28;20662;-76
2021/07/29 10:16:48;;;;;;;3.72;3.17;;;;;;;21.87;43.77;95580.34;5095601;28;20176;-75
2021/07/29 10:19:17;;;;;;;3.88;3.47;;;;;;;22.51;44.35;95576.47;5095560;28;20259;-76
2021/07/29 10:21:44;;;;;;;4.75;2.97;;;;;;;21.97;44.13;95570.91;5094956;28;20231;-76
2021/07/29 10:24:10;;;;;;;4.68;3.30;;;;;;;22.06;44.46;95579.38;5078627;28;20176;-76
2021/07/29 10:26:58;;;;;;;3.90;3.08;;;;;;;21.52;44.92;95578.19;5095545;28;20647;-76
2021/07/29 10:29:26;;;;;;;4.47;3.00;;;;;;;21.40;44.88;95579.94;5113306;28;20184;-76
2021/07/29 10:31:56;;;;;;;4.93;3.50;;;;;;;20.84;45.66;95581.41;5092107;27;20575;-76
2021/07/29 10:34:30;;;;;;;4.82;3.42;;;;;;;21.26;46.77;95588.91;5115217;27;20195;-77
2021/07/29 10:36:58;;;;;;;4.32;3.70;;;;;;;21.05;46.00;95585.59;5094508;28;20180;-77
2021/07/29 10:39:24;;;;;;;5.47;3.25;;;;;;;21.46;45.62;95582.50;5096076;27;20219;-78
2021/07/29 10:41:58;;;;;;;6.10;3.75;;;;;;;21.42;44.50;95585.81;5116218;27;20731;-78
2021/07/29 10:44:34;;;;;;;4.85;3.63;;;;;;;21.74;44.95;95586.59;5096451;28;20231;-78
2021/07/29 10:47:03;;;;;;;3.70;3.40;;;;;;;21.39;44.29;95573.03;5112796;28;20290;-77
2021/07/29 10:49:53;;;;;;;5.25;4.20;;;;;;;22.19;45.30;95581.13;5108342;27;20207;-78
2021/07/29 10:52:19;;;;;;;6.95;3.22;;;;;;;22.29;45.13;95582.22;5119892;27;20187;-78
2021/07/29 10:54:45;;;;;;;4.50;3.33;;;;;;;22.68;43.17;95572.19;5116816;27;20548;-78
2021/07/29 10:57:11;;;;;;;6.40;3.30;;;;;;;22.43;42.72;95579.41;5100039;27;20167;-78
2021/07/29 10:59:37;;;;;;;6.93;3.78;;;;;;;22.75;43.49;95585.38;5109517;27;20172;-78
2021/07/29 11:02:07;;;;;;;4.03;3.53;;;;;;;22.97;42.43;95567.19;5098926;27;20678;-76
2021/07/29 11:04:55;;;;;;;4.75;3.30;;;;;;;22.96;42.16;95570.88;5135249;27;20222;-78
2021/07/29 11:07:21;;;;;;;3.50;3.17;;;;;;;23.58;42.28;95572.19;5117165;27;20220;-78
2021/07/29 11:09:46;;;;;;;4.13;3.38;;;;;;;23.81;41.54;95576.75;5101098;27;20171;-78
2021/07/29 11:12:19;;;;;;;3.78;2.92;;;;;;;23.53;41.36;95566.78;5135903;27;20178;-78
2021/07/29 11:14:45;;;;;;;3.92;3.25;;;;;;;23.06;40.87;95561.38;5117573;27;20862;-78
2021/07/29 11:17:10;;;;;;;6.25;3.42;;;;;;;23.02;41.28;95567.31;5117247;27;20178;-78
2021/07/29 11:19:43;;;;;;;3.30;3.08;;;;;;;22.64;41.63;95567.59;5117848;27;20187;-78
2021/07/29 11:22:09;;;;;;;4.50;3.30;;;;;;;22.87;42.47;95565.06;5117386;27;20621;-79
2021/07/29 11:24:35;;;;;;;6.78;4.07;;;;;;;22.69;41.73;95571.16;5118256;27;20252;-82
2021/07/29 11:27:03;;;;;;;4.93;3.53;;;;;;;22.81;41.84;95564.13;5102980;27;20215;-79
2021/07/29 11:29:29;;;;;;;4.50;3.45;;;;;;;22.74;42.23;95567.88;5118409;27;20259;-79
2021/07/29 11:31:56;;;;;;;4.80;3.75;;;;;;;22.61;41.98;95561.69;5102391;27;20190;-78